createdAt,value
2018-07-26T00:00:02.794Z,2.74
2018-07-26T00:02:59.239Z,2.43
2018-07-26T00:05:55.347Z,3.23
2018-07-26T00:08:51.758Z,2.86
2018-07-26T00:11:47.821Z,3.60
2018-07-26T00:14:43.996Z,2.96
2018-07-26T00:17:40.020Z,3.00
2018-07-26T00:20:36.094Z,3.47
2018-07-26T00:23:32.221Z,2.79
2018-07-26T00:26:28.626Z,2.76
2018-07-26T00:29:25.390Z,2.83
2018-07-26T00:32:22.120Z,2.42
2018-07-26T00:35:18.289Z,2.31
2018-07-26T00:38:14.691Z,2.78
2018-07-26T00:41:10.793Z,3.02
2018-07-26T00:44:07.324Z,3.13
2018-07-26T00:47:03.404Z,3.60
2018-07-26T00:49:59.508Z,2.84
2018-07-26T00:52:55.690Z,3.28
2018-07-26T00:55:51.763Z,3.04
2018-07-26T00:58:47.567Z,2.86
2018-07-26T01:01:43.304Z,3.01
2018-07-26T01:04:39.385Z,2.91
2018-07-26T01:07:35.824Z,2.77
2018-07-26T01:10:31.938Z,2.67
2018-07-26T01:13:28.184Z,3.00
2018-07-26T01:16:24.588Z,2.61
2018-07-26T01:19:20.688Z,2.78
2018-07-26T01:22:17.208Z,2.79
2018-07-26T01:25:16.796Z,3.24
2018-07-26T01:28:12.884Z,2.80
2018-07-26T01:31:09.302Z,3.48
2018-07-26T01:34:05.919Z,2.84
2018-07-26T01:37:02.005Z,3.43
2018-07-26T01:39:58.427Z,3.63
2018-07-26T01:43:06.532Z,3.44
2018-07-26T01:46:02.354Z,3.61
2018-07-26T01:48:58.940Z,2.71
2018-07-26T01:51:55.792Z,3.57
2018-07-26T01:54:52.332Z,3.10
2018-07-26T01:57:48.776Z,3.25
2018-07-26T02:00:45.168Z,3.78
2018-07-26T02:03:41.849Z,4.29
2018-07-26T02:06:38.621Z,3.42
2018-07-26T02:09:35.353Z,3.10
2018-07-26T02:12:31.450Z,3.04
2018-07-26T02:15:29.979Z,2.78
2018-07-26T02:18:26.063Z,4.78
2018-07-26T02:21:22.178Z,4.00
2018-07-26T02:24:18.400Z,3.69
2018-07-26T02:27:14.490Z,3.71
2018-07-26T02:30:10.612Z,4.36
2018-07-26T02:33:06.788Z,3.94
2018-07-26T02:36:03.152Z,3.18
2018-07-26T02:38:59.226Z,3.88
2018-07-26T02:41:55.592Z,3.57
2018-07-26T02:44:52.375Z,3.32
2018-07-26T02:47:49.240Z,3.37
2018-07-26T02:50:45.643Z,2.90
2018-07-26T02:53:41.789Z,3.33
2018-07-26T02:56:38.183Z,2.69
2018-07-26T02:59:34.265Z,3.92
2018-07-26T03:02:30.688Z,3.24
2018-07-26T03:05:27.250Z,3.09
2018-07-26T03:08:24.159Z,3.11
2018-07-26T03:11:20.880Z,2.74
2018-07-26T03:14:17.042Z,2.69
2018-07-26T03:17:15.144Z,2.85
2018-07-26T03:20:11.219Z,4.34
2018-07-26T03:23:07.396Z,3.68
2018-07-26T03:26:04.066Z,3.17
2018-07-26T03:28:59.876Z,4.57
2018-07-26T03:31:55.909Z,3.50
2018-07-26T03:34:52.028Z,3.37
2018-07-26T03:37:48.414Z,2.78
2018-07-26T03:40:44.514Z,2.86
2018-07-26T03:43:40.717Z,3.14
2018-07-26T03:46:36.675Z,3.28
2018-07-26T03:49:32.519Z,3.40
2018-07-26T03:52:28.524Z,3.22
2018-07-26T03:55:25.017Z,3.50
2018-07-26T03:58:21.107Z,3.24
2018-07-26T04:01:17.479Z,3.17
2018-07-26T04:04:13.603Z,3.00
2018-07-26T04:07:10.014Z,2.94
2018-07-26T04:10:06.833Z,2.92
2018-07-26T04:13:03.989Z,2.91
2018-07-26T04:16:00.363Z,3.51
2018-07-26T04:18:56.426Z,3.54
2018-07-26T04:21:52.506Z,3.87
2018-07-26T04:24:48.641Z,3.19
2018-07-26T04:27:44.639Z,3.10
2018-07-26T04:30:41.431Z,2.89
2018-07-26T04:33:37.987Z,3.10
2018-07-26T04:36:34.602Z,2.98
2018-07-26T04:39:31.334Z,2.87
2018-07-26T04:42:28.070Z,2.92
2018-07-26T04:45:24.250Z,2.51
2018-07-26T04:48:20.330Z,4.24
2018-07-26T04:51:16.760Z,3.67
2018-07-26T04:54:14.894Z,3.37
2018-07-26T04:57:10.966Z,3.30
2018-07-26T05:00:07.149Z,3.70
2018-07-26T05:03:03.184Z,3.59
2018-07-26T05:05:59.268Z,4.20
2018-07-26T05:08:55.637Z,3.76
2018-07-26T05:11:52.133Z,3.86
2018-07-26T05:14:48.297Z,4.54
2018-07-26T05:17:44.408Z,3.62
2018-07-26T05:20:40.813Z,3.22
2018-07-26T05:23:37.372Z,3.56
2018-07-26T05:26:33.428Z,4.51
2018-07-26T05:29:29.499Z,3.76
2018-07-26T05:32:25.900Z,3.18
2018-07-26T05:35:22.763Z,3.36
2018-07-26T05:38:19.601Z,3.31
2018-07-26T05:41:16.132Z,2.98
2018-07-26T05:44:12.274Z,3.56
2018-07-26T05:47:08.373Z,3.08
2018-07-26T05:50:05.824Z,3.49
2018-07-26T05:53:02.668Z,3.28
2018-07-26T05:55:58.659Z,3.64
2018-07-26T05:58:55.115Z,3.08
2018-07-26T06:01:51.821Z,3.21
2018-07-26T06:04:48.732Z,2.89
2018-07-26T06:07:45.188Z,3.23
2018-07-26T06:10:41.486Z,3.25
2018-07-26T06:13:39.113Z,2.92
2018-07-26T06:16:35.268Z,3.53
2018-07-26T06:19:31.335Z,3.23
2018-07-26T06:22:27.836Z,3.12
2018-07-26T06:25:24.254Z,3.39
2018-07-26T06:28:20.350Z,3.31
2018-07-26T06:31:16.740Z,2.54
2018-07-26T06:34:13.887Z,3.08
2018-07-26T06:37:09.988Z,3.04
2018-07-26T06:40:06.966Z,2.50
2018-07-26T06:43:04.912Z,2.43
2018-07-26T06:46:01.003Z,3.04
2018-07-26T06:48:59.967Z,2.75
2018-07-26T06:51:56.824Z,3.04
2018-07-26T06:54:54.257Z,2.40
2018-07-26T06:57:50.381Z,3.14
2018-07-26T07:00:46.422Z,2.56
2018-07-26T07:03:42.540Z,2.22
2018-07-26T07:06:39.476Z,2.97
2018-07-26T07:09:35.940Z,2.30
2018-07-26T07:12:32.062Z,2.38
2018-07-26T07:15:30.956Z,2.78
2018-07-26T07:18:27.678Z,2.27
2018-07-26T07:21:23.774Z,2.91
2018-07-26T07:24:21.084Z,2.03
2018-07-26T07:27:17.170Z,2.07
2018-07-26T07:30:14.028Z,1.81
2018-07-26T07:33:10.837Z,1.99
2018-07-26T07:36:07.495Z,2.14
2018-07-26T07:39:06.253Z,2.46
2018-07-26T07:42:02.939Z,2.21
2018-07-26T07:44:59.654Z,2.07
2018-07-26T07:47:56.030Z,1.81
2018-07-26T07:50:52.467Z,1.71
2018-07-26T07:53:48.571Z,1.91
2018-07-26T07:56:44.947Z,1.84
2018-07-26T07:59:41.663Z,1.77
2018-07-26T08:02:38.465Z,1.85
2018-07-26T08:05:34.526Z,1.67
2018-07-26T08:08:31.168Z,1.62
2018-07-26T08:11:27.597Z,1.72
2018-07-26T08:14:23.744Z,1.50
2018-07-26T08:17:20.372Z,1.56
2018-07-26T08:20:16.777Z,1.65
2018-07-26T08:23:13.470Z,1.49
2018-07-26T08:26:10.176Z,1.60
2018-07-26T08:29:06.605Z,1.68
2018-07-26T08:32:02.994Z,1.93
2018-07-26T08:34:59.849Z,1.67
2018-07-26T08:37:56.173Z,1.85
2018-07-26T08:40:52.933Z,1.87
2018-07-26T08:43:49.672Z,2.00
2018-07-26T08:46:46.080Z,1.89
2018-07-26T08:49:42.493Z,1.60
2018-07-26T08:52:38.859Z,1.64
2018-07-26T08:55:35.563Z,2.07
2018-07-26T08:58:32.306Z,1.81
2018-07-26T09:01:28.721Z,1.95
2018-07-26T09:04:25.432Z,1.99
2018-07-26T09:07:22.144Z,2.11
2018-07-26T09:10:18.915Z,2.00
2018-07-26T09:13:15.386Z,1.90
2018-07-26T09:16:12.117Z,2.00
2018-07-26T09:19:09.077Z,2.10
2018-07-26T09:22:05.564Z,1.98
2018-07-26T09:25:02.031Z,2.21
2018-07-26T09:27:58.644Z,2.14
2018-07-26T09:30:55.375Z,1.70
2018-07-26T09:33:51.877Z,1.99
2018-07-26T09:36:48.628Z,2.01
2018-07-26T09:39:45.361Z,1.98
2018-07-26T09:42:42.069Z,2.12
2018-07-26T09:45:38.778Z,2.30
2018-07-26T09:48:35.180Z,1.80
2018-07-26T09:51:31.926Z,1.85
2018-07-26T09:54:28.401Z,2.16
2018-07-26T09:57:24.965Z,2.31
2018-07-26T10:00:26.886Z,2.36
2018-07-26T10:03:23.231Z,1.92
2018-07-26T10:06:19.950Z,2.07
2018-07-26T10:09:16.651Z,2.02
2018-07-26T10:12:13.346Z,2.15
2018-07-26T10:15:10.149Z,2.13
2018-07-26T10:18:06.832Z,2.46
2018-07-26T10:38:01.311Z,2.28
2018-07-26T10:40:58.034Z,2.20
2018-07-26T10:43:54.995Z,2.18
2018-07-26T10:46:51.874Z,2.31
2018-07-26T10:49:48.272Z,2.16
2018-07-26T10:52:45.083Z,2.39
2018-07-26T10:55:41.178Z,2.55
2018-07-26T10:58:37.563Z,2.30
2018-07-26T11:01:34.310Z,2.16
2018-07-26T11:04:30.728Z,2.21
2018-07-26T11:07:26.838Z,2.23
2018-07-26T11:10:23.617Z,2.46
2018-07-26T11:13:20.012Z,2.27
2018-07-26T11:16:16.109Z,2.50
2018-07-26T11:19:12.859Z,2.39
2018-07-26T11:22:09.255Z,2.34
2018-07-26T11:25:06.485Z,2.55
2018-07-26T11:28:03.283Z,1.89
2018-07-26T11:30:59.396Z,2.07
2018-07-26T11:33:55.486Z,2.54
2018-07-26T11:36:51.573Z,2.44
2018-07-26T11:39:48.354Z,2.32
2018-07-26T11:42:44.740Z,2.44
2018-07-26T11:45:41.608Z,2.19
2018-07-26T11:48:38.085Z,2.27
2018-07-26T11:51:34.853Z,2.21
2018-07-26T11:54:31.264Z,2.21
2018-07-26T11:57:27.350Z,2.41
2018-07-26T12:00:24.100Z,2.34
2018-07-26T12:03:20.604Z,2.38
2018-07-26T12:06:17.046Z,2.35
2018-07-26T12:09:12.777Z,2.30
2018-07-26T12:12:09.705Z,2.33
2018-07-26T12:15:05.895Z,2.47
2018-07-26T12:18:02.220Z,2.67
2018-07-26T12:20:58.195Z,2.50
2018-07-26T12:23:55.045Z,2.45
2018-07-26T12:26:51.657Z,2.01
2018-07-26T12:29:48.301Z,2.26
2018-07-26T12:32:44.732Z,2.31
2018-07-26T12:35:40.836Z,2.58
2018-07-26T12:38:37.579Z,2.60
2018-07-26T12:41:33.677Z,2.70
2018-07-26T12:44:30.522Z,2.82
2018-07-26T12:47:26.935Z,2.95
2018-07-26T12:50:23.012Z,2.70
2018-07-26T12:53:19.599Z,2.88
2018-07-26T12:56:15.879Z,2.48
2018-07-26T12:59:11.962Z,2.43
2018-07-26T13:02:08.715Z,2.73
2018-07-26T13:05:06.553Z,2.91
2018-07-26T13:08:02.633Z,2.74
2018-07-26T13:10:59.402Z,2.71
2018-07-26T13:13:55.892Z,3.01
2018-07-26T13:16:52.635Z,2.77
2018-07-26T13:19:48.779Z,2.96
2018-07-26T13:22:45.592Z,2.76
2018-07-26T13:25:41.999Z,2.80
2018-07-26T13:28:38.834Z,2.90
2018-07-26T13:31:35.194Z,2.88
2018-07-26T13:34:31.329Z,3.23
2018-07-26T13:37:28.020Z,2.82
2018-07-26T13:40:24.385Z,2.76
2018-07-26T13:43:20.599Z,2.72
2018-07-26T13:46:16.757Z,2.87
2018-07-26T13:49:12.826Z,3.00
2018-07-26T13:52:09.527Z,2.67
2018-07-26T13:55:06.110Z,2.84
2018-07-26T13:58:02.654Z,3.36
2018-07-26T14:00:59.035Z,2.89
2018-07-26T14:03:55.213Z,3.44
2018-07-26T14:06:51.325Z,2.85
2018-07-26T14:09:47.900Z,3.26
2018-07-26T14:12:43.987Z,3.76
2018-07-26T14:15:40.887Z,3.22
2018-07-26T14:18:36.922Z,3.40
2018-07-26T14:21:33.329Z,3.22
2018-07-26T14:24:30.058Z,3.44
2018-07-26T14:27:26.519Z,2.99
2018-07-26T14:30:23.065Z,2.91
2018-07-26T14:33:19.480Z,3.18
2018-07-26T14:36:15.562Z,3.11
2018-07-26T14:39:13.003Z,2.96
2018-07-26T14:42:09.398Z,2.68
2018-07-26T14:45:05.776Z,3.21
2018-07-26T14:48:02.220Z,2.99
2018-07-26T14:50:58.707Z,3.57
2018-07-26T14:53:55.687Z,3.91
2018-07-26T14:56:52.458Z,4.04
2018-07-26T14:59:48.842Z,3.89
2018-07-26T15:02:44.958Z,3.94
2018-07-26T15:05:41.719Z,3.93
2018-07-26T15:08:38.084Z,3.69
2018-07-26T15:11:34.142Z,3.73
2018-07-26T15:14:30.310Z,3.76
2018-07-26T15:17:27.070Z,3.68
2018-07-26T15:20:23.486Z,3.78
2018-07-26T15:23:19.611Z,3.61
2018-07-26T15:26:16.407Z,3.52
2018-07-26T15:29:12.725Z,3.68
2018-07-26T15:32:09.408Z,3.85
2018-07-26T15:35:05.288Z,3.86
2018-07-26T15:38:01.592Z,3.63
2018-07-26T15:40:57.682Z,3.78
2018-07-26T15:43:54.420Z,4.12
2018-07-26T15:46:50.819Z,4.15
2018-07-26T15:49:46.879Z,4.28
2018-07-26T15:52:43.521Z,4.49
2018-07-26T15:55:39.938Z,4.03
2018-07-26T15:58:36.008Z,4.29
2018-07-26T16:01:32.708Z,4.38
2018-07-26T16:04:28.879Z,4.27
2018-07-26T16:07:25.745Z,4.18
2018-07-26T16:10:22.523Z,4.32
2018-07-26T16:13:18.630Z,3.94
2018-07-26T16:16:15.373Z,4.03
2018-07-26T16:19:11.793Z,4.10
2018-07-26T16:22:08.475Z,4.19
2018-07-26T16:25:06.176Z,3.95
2018-07-26T16:28:02.535Z,4.10
2018-07-26T16:30:58.727Z,4.17
2018-07-26T16:33:55.444Z,4.08
2018-07-26T16:36:52.408Z,4.42
2018-07-26T16:39:48.812Z,4.07
2018-07-26T16:42:44.965Z,4.07
2018-07-26T16:45:41.831Z,4.39
2018-07-26T16:48:38.594Z,4.27
2018-07-26T16:51:35.508Z,4.44
2018-07-26T16:54:31.929Z,4.29
2018-07-26T16:57:28.027Z,3.99
2018-07-26T17:00:24.672Z,4.11
2018-07-26T17:03:21.226Z,3.76
2018-07-26T17:06:18.008Z,4.24
2018-07-26T17:09:14.821Z,4.29
2018-07-26T17:12:11.502Z,4.30
2018-07-26T17:15:08.947Z,4.14
2018-07-26T17:18:05.315Z,4.21
2018-07-26T17:21:01.433Z,4.34
2018-07-26T17:23:58.313Z,4.37
2018-07-26T17:26:55.085Z,4.12
2018-07-26T17:29:51.839Z,4.13
2018-07-26T17:32:48.507Z,4.31
2018-07-26T17:35:44.960Z,4.00
2018-07-26T17:38:40.996Z,4.19
2018-07-26T17:41:37.739Z,4.12
2018-07-26T17:44:34.641Z,4.14
2018-07-26T17:47:31.035Z,4.09
2018-07-26T17:50:27.752Z,4.32
2018-07-26T17:53:24.156Z,4.12
2018-07-26T17:56:20.249Z,4.29
2018-07-26T17:59:17.477Z,4.05
2018-07-26T18:02:13.005Z,4.49
2018-07-26T18:05:09.366Z,4.12
2018-07-26T18:08:05.737Z,4.41
2018-07-26T18:11:02.015Z,4.70
2018-07-26T18:13:58.419Z,4.11
2018-07-26T18:16:54.520Z,4.40
2018-07-26T18:19:51.205Z,4.64
2018-07-26T18:22:48.050Z,4.70
2018-07-26T18:25:44.980Z,4.38
2018-07-26T18:28:41.339Z,4.18
2018-07-26T18:31:37.572Z,4.62
2018-07-26T18:34:33.551Z,4.59
2018-07-26T18:37:30.347Z,4.31
2018-07-26T18:40:27.095Z,4.60
2018-07-26T18:43:23.301Z,4.75
2018-07-26T18:46:19.263Z,4.26
2018-07-26T18:49:15.908Z,4.01
2018-07-26T18:52:12.275Z,4.30
2018-07-26T18:55:10.381Z,4.53
2018-07-26T18:58:06.829Z,3.91
2018-07-26T19:01:02.916Z,4.01
2018-07-26T19:03:59.835Z,4.03
2018-07-26T19:06:56.690Z,4.16
2018-07-26T19:09:53.580Z,3.89
2018-07-26T19:12:50.204Z,4.00
2018-07-26T19:15:46.619Z,4.04
2018-07-26T19:18:43.049Z,3.53
2018-07-26T19:21:39.450Z,3.53
2018-07-26T19:24:36.499Z,3.39
2018-07-26T19:27:33.016Z,4.39
2018-07-26T19:30:29.099Z,4.03
2018-07-26T19:33:25.800Z,3.71
2018-07-26T19:36:22.499Z,3.54
2018-07-26T19:39:18.645Z,3.99
2018-07-26T19:42:14.777Z,3.78
2018-07-26T19:45:12.369Z,3.97
2018-07-26T19:48:09.052Z,3.58
2018-07-26T19:51:05.670Z,4.03
2018-07-26T19:54:02.689Z,3.78
2018-07-26T19:56:59.646Z,3.90
2018-07-26T19:59:56.620Z,3.93
2018-07-26T20:02:53.222Z,3.71
2018-07-26T20:05:49.634Z,3.79
2018-07-26T20:08:46.086Z,3.20
2018-07-26T20:11:42.885Z,3.83
2018-07-26T20:14:39.738Z,3.86
2018-07-26T20:17:36.181Z,4.39
2018-07-26T20:20:32.552Z,4.26
2018-07-26T20:23:28.742Z,3.72
2018-07-26T20:26:25.366Z,3.66
2018-07-26T20:29:21.764Z,3.98
2018-07-26T20:32:18.277Z,3.70
2018-07-26T20:35:14.450Z,3.84
2018-07-26T20:38:10.893Z,3.28
2018-07-26T20:41:07.300Z,3.87
2018-07-26T20:44:03.434Z,3.99
2018-07-26T20:46:59.540Z,4.00
2018-07-26T20:49:55.986Z,4.07
2018-07-26T20:52:53.549Z,3.74
2018-07-26T20:55:49.907Z,3.89
2018-07-26T20:58:45.990Z,3.60
2018-07-26T21:01:42.677Z,4.53
2018-07-26T21:04:39.414Z,3.85
2018-07-26T21:07:36.059Z,4.20
2018-07-26T21:10:32.392Z,3.99
2018-07-26T21:13:28.535Z,3.72
2018-07-26T21:16:25.011Z,3.69
2018-07-26T21:19:21.701Z,4.36
2018-07-26T21:22:17.791Z,4.51
2018-07-26T21:25:14.288Z,4.42
2018-07-26T21:28:10.361Z,3.88
2018-07-26T21:31:07.012Z,4.24
2018-07-26T21:34:03.811Z,4.37
2018-07-26T21:36:59.875Z,4.31
2018-07-26T21:39:56.571Z,4.89
2018-07-26T21:42:53.126Z,4.11
2018-07-26T21:45:49.225Z,4.79
2018-07-26T21:48:45.726Z,4.12
2018-07-26T21:51:42.608Z,4.19
2018-07-26T21:54:39.812Z,4.40
2018-07-26T21:57:36.313Z,3.63
2018-07-26T22:00:40.936Z,4.43
2018-07-26T22:03:37.117Z,4.25
2018-07-26T22:06:33.222Z,4.58
2018-07-26T22:09:29.923Z,4.00
2018-07-26T22:12:26.350Z,3.61
2018-07-26T22:15:22.837Z,3.69
2018-07-26T22:18:19.393Z,2.81
2018-07-26T22:21:16.148Z,3.13
2018-07-26T22:24:12.878Z,3.64
2018-07-26T22:27:08.970Z,3.55
2018-07-26T22:30:05.560Z,3.13
2018-07-26T22:33:01.663Z,2.89
2018-07-26T22:35:57.724Z,3.04
2018-07-26T22:38:54.428Z,3.78
2018-07-26T22:41:50.857Z,2.90
2018-07-26T22:44:46.978Z,3.40
2018-07-26T22:47:43.354Z,2.65
2018-07-26T22:50:40.050Z,3.18
2018-07-26T22:53:36.211Z,3.92
2018-07-26T22:56:33.052Z,3.50
2018-07-26T22:59:29.445Z,2.71
2018-07-26T23:02:25.498Z,4.11
2018-07-26T23:05:22.061Z,3.40
2018-07-26T23:08:18.581Z,5.01
2018-07-26T23:11:14.711Z,4.49
2018-07-26T23:14:11.272Z,4.06
2018-07-26T23:17:07.679Z,3.52
2018-07-26T23:20:03.747Z,3.88
2018-07-26T23:23:00.252Z,3.17
2018-07-26T23:25:56.756Z,2.97
2018-07-26T23:28:52.825Z,3.56
2018-07-26T23:31:48.956Z,3.69
2018-07-26T23:34:45.378Z,3.42
2018-07-26T23:37:41.435Z,3.64
2018-07-26T23:40:37.920Z,3.38
2018-07-26T23:43:34.802Z,3.06
2018-07-26T23:46:31.289Z,3.20
2018-07-26T23:49:27.352Z,3.40
2018-07-26T23:52:23.410Z,3.84
2018-07-26T23:55:20.083Z,4.30
2018-07-26T23:58:16.415Z,3.70
